Wan Hai 515 — 9V7581 — position and weather

sailwx.info

Track history (hours):
 
Tides and Currents Weather Stations Pressure Air Temp Water Temp Dewpoint Dewpoint Depression Visibility Wind Speed Wind Dir Waves Ship Positions

Wan Hai 515

Last reported at 2018-Jun-15 20:45 UTC. Time now 2018-Jun-19 20:19 UTC.
Position N 31°06' E 122°19'.

Length 259 m; draft 10.8 m.

Type: Cargo ship. MMSI: 566828000.

Date/timePositionNaut miles runAvg speedWind from/ knotsBaromVisibWave heightAir tempDewpointWater temp
2018-Jun-15 20:45N 31°06' E 122°19'414.5
2018-Jun-15 20:30N 31°08' E 122°15'814.3
2018-Jun-15 19:56N 31°13' E 122°07'613.3
2018-Jun-15 19:30N 31°15' E 122°01'713.3
2018-Jun-15 19:00N 31°16' E 121°54'610.9
2018-Jun-15 18:30N 31°18' E 121°47'7 0.3
2018-Jun-14 16:42N 31°20' E 121°40'1 1.1
2018-Jun-14 16:04N 31°20' E 121°40'1 8.7
2018-Jun-14 15:59N 31°20' E 121°41'510.7
2018-Jun-14 15:30N 31°18' E 121°47'511.2
2018-Jun-14 15:00N 31°16' E 121°53'611.2
2018-Jun-14 14:30N 31°15' E 121°59'911.6
2018-Jun-14 13:46N 31°12' E 122°09'411.6
2018-Jun-14 13:27N 31°10' E 122°12'512.1
2018-Jun-14 13:00N 31°07' E 122°17'510.8
2018-Jun-14 12:30N 31°07' E 122°24'5 8.7
2018-Jun-14 11:57N 31°09' E 122°28'4 6.2
2018-Jun-14 11:21N 31°10' E 122°33'114 8.3
2018-Jun-13 21:39N 33°04' E 122°40'216.0
2018-Jun-13 21:30N 33°06' E 122°39'915.7
2018-Jun-13 20:58N 33°14' E 122°38'19214.5
2018-Jun-13 07:41N 35°58' E 120°35'314.0
2018-Jun-13 07:26N 35°59' E 120°30'713.9
2018-Jun-13 06:56N 36°01' E 120°22'3 6.3
2018-Jun-13 06:26N 36°01' E 120°18'3 6.8
2018-Jun-13 05:55N 36°01' E 120°14'2 4.3
2018-Jun-13 05:25N 35°60' E 120°12'0 0.0
2018-Jun-13 04:55N 35°60' E 120°12'0 0.0
2018-Jun-13 04:28N 35°60' E 120°12'0 0.0
2018-Jun-13 03:19N 35°60' E 120°12'0 0.0
2018-Jun-13 02:45N 35°60' E 120°12'0 0.0
2018-Jun-13 02:28N 35°60' E 120°12'0 0.0
2018-Jun-13 01:46N 35°60' E 120°12'0 0.0
2018-Jun-13 01:27N 35°60' E 120°12'0 0.0
2018-Jun-13 00:16N 35°60' E 120°12'0 0.0
2018-Jun-12 23:58N 35°60' E 120°12'0 0.0
2018-Jun-12 23:21N 35°60' E 120°12'0 0.0
2018-Jun-12 22:47N 35°60' E 120°12'0 0.0
2018-Jun-12 20:03N 35°60' E 120°12'0 0.0
2018-Jun-12 11:44N 35°60' E 120°12'0 0.0
2018-Jun-12 10:11N 35°60' E 120°12'0 0.0
2018-Jun-12 09:07N 35°60' E 120°12'0 0.0
2018-Jun-12 08:16N 35°60' E 120°12'0 0.0
2018-Jun-12 07:58N 35°60' E 120°12'0 0.0
2018-Jun-12 07:05N 35°60' E 120°12'0 0.0
2018-Jun-12 06:12N 35°60' E 120°12'0 0.0
2018-Jun-12 05:15N 35°60' E 120°12'0 0.0
2018-Jun-12 04:58N 35°60' E 120°12'0 0.0
2018-Jun-12 04:21N 35°60' E 120°12'0 0.6
2018-Jun-12 03:44N 36°00' E 120°13'2 7.0
2018-Jun-12 03:28N 36°01' E 120°14'5 9.8
2018-Jun-12 02:57N 36°02' E 120°20'611.3
2018-Jun-12 02:27N 36°00' E 120°27'  
2018-Jun-08 15:28N 33°23' E 122°24'15516.3
2018-Jun-08 05:59N 30°52' E 123°01'2815.5
2018-Jun-08 04:10N 30°24' E 123°03'515.5
2018-Jun-08 03:53N 30°19' E 123°02'46515.2
2018-Jun-06 21:16N 23°55' E 118°09'715.1
2018-Jun-06 20:49N 23°50' E 118°03'  
Track history (hours):
 
Tides and Currents Weather Stations Pressure Air Temp Water Temp Dewpoint Dewpoint Depression Visibility Wind Speed Wind Dir Waves Ship Positions

Wan Hai 515

Last reported at 2018-Jun-15 20:45 UTC. Time now 2018-Jun-19 20:19 UTC.
Position N 31°06' E 122°19'.

Length 259 m; draft 10.8 m.

Type: Cargo ship. MMSI: 566828000.

Date/timePositionNaut miles runAvg speedWind from/ knotsBaromVisibWave heightAir tempDewpointWater temp
2018-Jun-15 20:45N 31°06' E 122°19'414.5
2018-Jun-15 20:30N 31°08' E 122°15'814.3
2018-Jun-15 19:56N 31°13' E 122°07'613.3
2018-Jun-15 19:30N 31°15' E 122°01'713.3
2018-Jun-15 19:00N 31°16' E 121°54'610.9
2018-Jun-15 18:30N 31°18' E 121°47'7 0.3
2018-Jun-14 16:42N 31°20' E 121°40'1 1.1
2018-Jun-14 16:04N 31°20' E 121°40'1 8.7
2018-Jun-14 15:59N 31°20' E 121°41'510.7
2018-Jun-14 15:30N 31°18' E 121°47'511.2
2018-Jun-14 15:00N 31°16' E 121°53'611.2
2018-Jun-14 14:30N 31°15' E 121°59'911.6
2018-Jun-14 13:46N 31°12' E 122°09'411.6
2018-Jun-14 13:27N 31°10' E 122°12'512.1
2018-Jun-14 13:00N 31°07' E 122°17'510.8
2018-Jun-14 12:30N 31°07' E 122°24'5 8.7
2018-Jun-14 11:57N 31°09' E 122°28'4 6.2
2018-Jun-14 11:21N 31°10' E 122°33'114 8.3
2018-Jun-13 21:39N 33°04' E 122°40'216.0
2018-Jun-13 21:30N 33°06' E 122°39'915.7
2018-Jun-13 20:58N 33°14' E 122°38'19214.5
2018-Jun-13 07:41N 35°58' E 120°35'314.0
2018-Jun-13 07:26N 35°59' E 120°30'713.9
2018-Jun-13 06:56N 36°01' E 120°22'3 6.3
2018-Jun-13 06:26N 36°01' E 120°18'3 6.8
2018-Jun-13 05:55N 36°01' E 120°14'2 4.3
2018-Jun-13 05:25N 35°60' E 120°12'0 0.0
2018-Jun-13 04:55N 35°60' E 120°12'0 0.0
2018-Jun-13 04:28N 35°60' E 120°12'0 0.0
2018-Jun-13 03:19N 35°60' E 120°12'0 0.0
2018-Jun-13 02:45N 35°60' E 120°12'0 0.0
2018-Jun-13 02:28N 35°60' E 120°12'0 0.0
2018-Jun-13 01:46N 35°60' E 120°12'0 0.0
2018-Jun-13 01:27N 35°60' E 120°12'0 0.0
2018-Jun-13 00:16N 35°60' E 120°12'0 0.0
2018-Jun-12 23:58N 35°60' E 120°12'0 0.0
2018-Jun-12 23:21N 35°60' E 120°12'0 0.0
2018-Jun-12 22:47N 35°60' E 120°12'0 0.0
2018-Jun-12 20:03N 35°60' E 120°12'0 0.0
2018-Jun-12 11:44N 35°60' E 120°12'0 0.0
2018-Jun-12 10:11N 35°60' E 120°12'0 0.0
2018-Jun-12 09:07N 35°60' E 120°12'0 0.0
2018-Jun-12 08:16N 35°60' E 120°12'0 0.0
2018-Jun-12 07:58N 35°60' E 120°12'0 0.0
2018-Jun-12 07:05N 35°60' E 120°12'0 0.0
2018-Jun-12 06:12N 35°60' E 120°12'0 0.0
2018-Jun-12 05:15N 35°60' E 120°12'0 0.0
2018-Jun-12 04:58N 35°60' E 120°12'0 0.0
2018-Jun-12 04:21N 35°60' E 120°12'0 0.6
2018-Jun-12 03:44N 36°00' E 120°13'2 7.0
2018-Jun-12 03:28N 36°01' E 120°14'5 9.8
2018-Jun-12 02:57N 36°02' E 120°20'611.3
2018-Jun-12 02:27N 36°00' E 120°27'  
2018-Jun-08 15:28N 33°23' E 122°24'15516.3
2018-Jun-08 05:59N 30°52' E 123°01'2815.5
2018-Jun-08 04:10N 30°24' E 123°03'515.5
2018-Jun-08 03:53N 30°19' E 123°02'46515.2
2018-Jun-06 21:16N 23°55' E 118°09'715.1
2018-Jun-06 20:49N 23°50' E 118°03'  

Dump ship's entire track history